首页
METAR-TAF:

METAR-TAF

机场 :

上海虹桥国际机场

上海 / 虹桥, 中华人民共和国

纬度: 31-10N, 经度: 121-26E, 海拔: 7米

当前天气观测

该预报发布于30分钟前的04:00 UTC
风速10节,风向
温度 12°C
湿度 94%
气压 1020 hPa
能见度10公里或以上
多云层高于700英尺
阴天层高于4000英尺
小雨

METAR: ZSSS 180400Z 01005MPS 9999 -RA BKN007 OVC040 12/11 Q1020 NOSIG

时间: 12:30 (04:30 UTC)

预报

该预报发布于9小时和7分钟前的19:23 UTC
预报有效从18日的 00点(UTC)到 18日的 24点(UTC)
风速8节,风向北转东北
能見度: 5000
多云层高于1100英尺
阴天层高于3000英尺
小雨, 轻雾
短暂存在
从 18日的 05点(UTC)到 18日的 11点(UTC)
多云层高于600英尺
阴天层高于3000英尺
阵雨
成为
从 18日的 13点(UTC)到 18日的 14点(UTC)
多云层高于1500英尺

TAF: ZSSS 171923Z 1800/1824 02004MPS 5000 -RA BR BKN011 OVC030 TX14/1806Z TN11/1821Z TEMPO 1805/1811 SHRA BKN006 OVC030 BECMG 1813/1814 BKN015

超过4000个机场的气象观测和天气预报(METAR&TAF报告)。

可查询的气象台以黄色和红色小点在地图上表示。

将鼠标移到小点上方,可查看气象台名称。

然后点击查看天气观测和预报。

如需切换地图:点击带黑十字的绿色按钮放大地图;点击带横线的绿色按钮缩小地图;或者点击绿色箭头查看邻近地区的地图。


METAR-TAF: